Time;durP1;ratioP1;P1;durP2;ratioP2;P2;SDS_P1;SDS_P2;PMS_P1;PMS_P2;Temp;Humidity;BMP_temperature;BMP_pressure;BME280_temperature;BME280_humidity;BME280_pressure;Samples;Min_cycle;Max_cycle;Signal;HPM_P1;HPM_P2
2021/06/08 00:00:40;;;;;;;16.48;15.07;;;;;;;16.17;99.81;96897.13;5112371;28;20490;-73
2021/06/08 00:03:07;;;;;;;17.30;15.90;;;;;;;16.18;99.93;96903.19;5111510;28;20036;-74
2021/06/08 00:05:33;;;;;;;17.08;15.77;;;;;;;16.17;100.00;96905.06;5111346;28;20476;-74
2021/06/08 00:08:01;;;;;;;17.23;15.93;;;;;;;16.17;100.00;96913.00;5114046;28;20039;-74
2021/06/08 00:10:27;;;;;;;18.38;16.95;;;;;;;16.16;99.95;96918.50;5115716;28;20031;-75
2021/06/08 00:12:53;;;;;;;17.15;15.77;;;;;;;16.15;100.00;96935.44;5115982;28;20039;-74
2021/06/08 00:15:19;;;;;;;18.30;16.98;;;;;;;16.11;100.00;96953.66;5116045;28;20044;-73
2021/06/08 00:17:46;;;;;;;19.35;17.75;;;;;;;16.09;100.00;96958.38;5114178;28;20047;-74
2021/06/08 00:20:13;;;;;;;17.92;16.52;;;;;;;16.06;100.00;96950.91;5114908;28;20047;-75
2021/06/08 00:22:39;;;;;;;11.63;10.75;;;;;;;16.06;99.76;96958.03;5114958;28;20039;-74
2021/06/08 00:25:06;;;;;;;3.92;3.72;;;;;;;16.01;96.95;96956.13;5115673;28;20113;-75
2021/06/08 00:27:33;;;;;;;2.10;2.00;;;;;;;15.92;95.79;96958.38;5115549;28;20043;-74
2021/06/08 00:30:00;;;;;;;2.03;1.48;;;;;;;15.82;95.93;96952.91;5116183;28;20039;-74
2021/06/08 00:32:26;;;;;;;1.67;1.60;;;;;;;15.74;95.03;96961.22;5115921;28;20043;-74
2021/06/08 00:34:59;;;;;;;1.77;1.67;;;;;;;15.63;95.77;96960.22;5115663;28;20047;-73
2021/06/08 00:37:26;;;;;;;2.97;1.42;;;;;;;15.56;95.95;96960.34;5116353;28;20063;-73
2021/06/08 00:39:53;;;;;;;2.00;1.73;;;;;;;15.48;96.08;96967.88;5115868;28;20036;-73
2021/06/08 00:42:35;;;;;;;2.22;2.00;;;;;;;15.39;95.81;96957.66;5115463;28;20047;-73
2021/06/08 00:45:05;;;;;;;1.85;1.75;;;;;;;15.36;96.57;96946.75;5115565;28;20031;-73
2021/06/08 00:47:32;;;;;;;2.20;2.00;;;;;;;15.34;96.58;96940.91;5116018;28;20043;-72
2021/06/08 00:49:58;;;;;;;2.45;2.30;;;;;;;15.32;96.61;96938.50;5115419;28;20036;-73
2021/06/08 00:52:24;;;;;;;2.55;2.45;;;;;;;15.30;96.67;96942.41;5115502;28;20046;-73
2021/06/08 00:54:50;;;;;;;2.05;1.95;;;;;;;15.34;97.06;96932.97;5115265;28;20040;-73
2021/06/08 00:57:17;;;;;;;2.90;2.70;;;;;;;15.37;96.83;96930.69;5113898;28;20036;-74
2021/06/08 00:59:44;;;;;;;2.85;2.63;;;;;;;15.40;96.88;96924.91;5115958;28;20032;-73
2021/06/08 01:02:11;;;;;;;2.60;2.40;;;;;;;15.43;96.62;96907.75;5115533;28;20048;-73
2021/06/08 01:04:37;;;;;;;2.80;2.60;;;;;;;15.44;96.81;96909.38;5114160;28;20042;-73
2021/06/08 01:07:03;;;;;;;3.22;3.03;;;;;;;15.46;96.61;96917.09;5115384;28;20051;-73
2021/06/08 01:09:30;;;;;;;2.58;2.45;;;;;;;15.49;96.54;96906.03;5115341;28;20403;-73
2021/06/08 01:11:56;;;;;;;3.13;2.92;;;;;;;15.50;96.33;96905.78;5115154;28;20039;-73
2021/06/08 01:14:22;;;;;;;3.10;2.65;;;;;;;15.53;96.08;96896.59;5115213;28;20031;-73
2021/06/08 01:16:48;;;;;;;3.17;2.97;;;;;;;15.55;95.88;96905.06;5114494;28;20044;-73
2021/06/08 01:19:16;;;;;;;2.78;2.67;;;;;;;15.54;95.80;96903.47;5112876;28;20070;-73
2021/06/08 01:21:43;;;;;;;2.90;2.70;;;;;;;15.53;95.47;96894.72;5114358;28;20153;-73
2021/06/08 01:24:10;;;;;;;2.70;2.60;;;;;;;15.53;95.50;96900.00;5114805;28;20490;-73
2021/06/08 01:26:37;;;;;;;2.33;2.20;;;;;;;15.53;95.49;96897.38;5114122;28;20051;-73
2021/06/08 01:29:05;;;;;;;2.85;2.65;;;;;;;15.53;95.32;96900.00;5114494;28;20055;-74
2021/06/08 01:31:34;;;;;;;2.75;2.65;;;;;;;15.54;95.14;96904.28;5114731;28;20468;-73
2021/06/08 01:34:01;;;;;;;4.38;4.07;;;;;;;15.53;95.12;96902.66;5114574;28;20024;-74
2021/06/08 01:36:32;;;;;;;2.85;2.67;;;;;;;15.51;94.83;96899.44;5114609;28;20066;-73
2021/06/08 01:38:59;;;;;;;3.10;2.90;;;;;;;15.49;94.84;96906.81;5114860;28;20502;-74
2021/06/08 01:41:26;;;;;;;4.43;3.50;;;;;;;15.47;94.89;96900.97;5113902;28;20519;-74
2021/06/08 01:43:53;;;;;;;3.60;3.40;;;;;;;15.46;94.89;96909.94;5114430;28;20031;-75
2021/06/08 01:46:21;;;;;;;5.38;3.38;;;;;;;15.45;95.04;96908.31;5114240;28;20040;-74
2021/06/08 01:48:48;;;;;;;3.00;2.70;;;;;;;15.45;95.01;96908.31;5103552;28;20039;-73
2021/06/08 01:51:33;;;;;;;3.97;3.67;;;;;;;15.43;94.75;96902.47;5113817;28;20042;-74
2021/06/08 01:54:31;;;;;;;3.75;3.45;;;;;;;15.35;94.91;96895.75;5114609;28;20050;-74
2021/06/08 01:57:04;;;;;;;3.88;3.67;;;;;;;15.28;94.76;96896.94;5078684;28;20050;-73
2021/06/08 01:59:37;;;;;;;4.05;3.75;;;;;;;15.24;95.08;96901.88;5114233;27;20036;-73
2021/06/08 02:02:04;;;;;;;3.30;3.10;;;;;;;15.23;95.15;96895.78;5114354;28;20411;-73
2021/06/08 02:04:42;;;;;;;3.67;3.38;;;;;;;15.25;95.32;96897.41;5114185;28;20452;-75
2021/06/08 02:07:17;;;;;;;3.72;2.90;;;;;;;15.26;95.38;96897.16;5114285;28;20377;-75
2021/06/08 02:09:59;;;;;;;3.15;2.95;;;;;;;15.28;95.57;96904.84;5113845;28;20031;-74
2021/06/08 02:12:26;;;;;;;3.90;2.67;;;;;;;15.31;95.48;96899.13;5113374;28;20043;-73
2021/06/08 02:14:58;;;;;;;2.95;2.75;;;;;;;15.35;95.67;96897.56;5113981;28;20039;-74
2021/06/08 02:17:37;;;;;;;3.25;3.05;;;;;;;15.35;95.74;96895.75;5114347;28;20036;-73
2021/06/08 02:20:13;;;;;;;3.30;2.70;;;;;;;15.36;95.30;96900.00;5113849;28;20039;-74
2021/06/08 02:22:44;;;;;;;2.85;2.65;;;;;;;15.37;95.39;96908.72;5113380;28;20047;-73
2021/06/08 02:25:12;;;;;;;2.70;2.60;;;;;;;15.38;95.34;96899.75;5113413;28;20039;-74
2021/06/08 02:27:41;;;;;;;2.70;2.50;;;;;;;15.39;95.47;96904.00;5107419;28;20031;-74
2021/06/08 02:30:08;;;;;;;2.95;2.75;;;;;;;15.40;95.40;96905.59;5111934;28;20486;-74
2021/06/08 02:32:35;;;;;;;2.88;2.63;;;;;;;15.40;95.27;96901.13;5113817;28;20043;-74
2021/06/08 02:35:02;;;;;;;2.92;2.72;;;;;;;15.40;95.42;96902.97;5100261;28;20044;-74
2021/06/08 02:37:29;;;;;;;3.60;3.40;;;;;;;15.37;95.50;96898.13;5113694;28;20043;-74
2021/06/08 02:39:57;;;;;;;5.45;4.95;;;;;;;15.34;95.37;96907.34;5113858;28;20423;-74
2021/06/08 02:42:24;;;;;;;4.00;3.80;;;;;;;15.34;95.44;96893.34;5113199;28;20390;-73
2021/06/08 02:44:52;;;;;;;4.10;3.70;;;;;;;15.34;95.55;96903.91;5113674;28;20425;-75
2021/06/08 02:47:19;;;;;;;3.47;3.28;;;;;;;15.35;95.54;96902.84;5113777;28;20123;-73
2021/06/08 02:49:49;;;;;;;3.15;3.03;;;;;;;15.34;95.42;96896.78;5113275;28;20036;-73
2021/06/08 02:52:18;;;;;;;3.40;3.10;;;;;;;15.33;95.40;96895.19;5113471;28;20040;-74
2021/06/08 02:54:48;;;;;;;2.85;2.65;;;;;;;15.32;95.13;96904.13;5114196;28;20035;-74
2021/06/08 02:57:14;;;;;;;3.13;2.83;;;;;;;15.33;95.29;96905.75;5113306;28;20043;-74
2021/06/08 02:59:42;;;;;;;3.42;3.13;;;;;;;15.32;95.40;96908.63;5113323;28;20027;-76
2021/06/08 03:02:14;;;;;;;3.95;3.65;;;;;;;15.33;95.34;96894.38;5112881;28;20046;-74
2021/06/08 03:04:49;;;;;;;3.03;2.83;;;;;;;15.31;95.36;96885.91;5113519;28;20036;-75
2021/06/08 03:07:16;;;;;;;3.28;3.08;;;;;;;15.31;95.46;96899.91;5101952;28;20034;-73
2021/06/08 03:10:06;;;;;;;3.70;3.40;;;;;;;15.29;95.53;96899.34;5113488;28;20044;-74
2021/06/08 03:12:36;;;;;;;3.80;3.60;;;;;;;15.23;95.37;96906.38;5111608;28;20355;-75
2021/06/08 03:15:05;;;;;;;3.78;3.42;;;;;;;15.20;95.62;96904.22;5106648;28;20376;-74
2021/06/08 03:17:33;;;;;;;3.88;3.60;;;;;;;15.20;95.50;96911.31;5113153;28;20035;-73
2021/06/08 03:20:45;;;;;;;3.45;3.25;;;;;;;15.20;96.59;96908.66;5113818;28;20043;-73
2021/06/08 03:23:16;;;;;;;3.55;3.22;;;;;;;15.16;95.90;96908.34;5105452;28;20047;-73
2021/06/08 03:25:43;;;;;;;3.17;2.85;;;;;;;15.15;95.88;96909.38;5112791;28;20447;-74
2021/06/08 03:28:12;;;;;;;3.25;2.92;;;;;;;15.15;96.00;96909.38;5113543;28;20055;-73
2021/06/08 03:30:40;;;;;;;3.00;2.80;;;;;;;15.17;96.09;96917.06;5112908;28;20040;-73
2021/06/08 03:33:07;;;;;;;2.90;2.80;;;;;;;15.17;96.17;96915.22;5113182;28;20039;-73
2021/06/08 03:35:34;;;;;;;2.90;2.70;;;;;;;15.20;96.16;96913.94;5112403;28;20055;-73
2021/06/08 03:38:01;;;;;;;2.75;2.65;;;;;;;15.20;96.14;96911.31;5113337;28;20043;-73
2021/06/08 03:40:28;;;;;;;2.63;2.53;;;;;;;15.20;96.00;96906.03;5112675;28;20039;-74
2021/06/08 03:42:55;;;;;;;2.40;2.30;;;;;;;15.21;95.75;96915.56;5115492;28;20051;-74
2021/06/08 03:45:22;;;;;;;2.03;1.92;;;;;;;15.21;95.67;96915.56;5115312;28;20044;-73
2021/06/08 03:47:49;;;;;;;2.20;2.10;;;;;;;15.22;95.58;96919.81;5116599;28;20046;-73
2021/06/08 03:50:15;;;;;;;2.03;1.75;;;;;;;15.23;95.62;96916.94;5116396;28;20050;-75
2021/06/08 03:52:49;;;;;;;1.95;1.85;;;;;;;15.27;95.55;96919.91;5098220;28;20581;-73
2021/06/08 03:55:21;;;;;;;2.20;2.10;;;;;;;15.30;95.66;96927.34;5114559;28;20487;-74
2021/06/08 03:57:52;;;;;;;1.60;1.60;;;;;;;15.34;95.61;96925.06;5117073;28;20052;-74
2021/06/08 04:00:21;;;;;;;1.85;1.80;;;;;;;15.38;95.55;96920.91;5116443;28;20032;-73
2021/06/08 04:02:48;;;;;;;2.30;2.20;;;;;;;15.41;95.44;96923.88;5115911;28;20376;-74
2021/06/08 04:05:15;;;;;;;1.92;1.83;;;;;;;15.45;95.42;96918.09;5115908;28;20044;-74
2021/06/08 04:07:46;;;;;;;1.83;1.73;;;;;;;15.48;95.69;96922.94;5117109;28;20065;-73
2021/06/08 04:10:20;;;;;;;2.03;1.92;;;;;;;15.50;95.23;96934.06;5114472;28;20493;-73
2021/06/08 04:12:48;;;;;;;2.20;2.10;;;;;;;15.52;95.14;96934.66;5116153;28;20081;-73
2021/06/08 04:15:16;;;;;;;2.85;2.75;;;;;;;15.54;95.21;96940.47;5116213;28;20043;-73
2021/06/08 04:17:42;;;;;;;3.90;3.63;;;;;;;15.54;95.17;96938.66;5116116;28;20039;-73
2021/06/08 04:20:10;;;;;;;4.22;3.92;;;;;;;15.57;95.18;96940.00;5114995;28;20042;-73
2021/06/08 04:22:38;;;;;;;5.00;4.70;;;;;;;15.61;95.37;96949.06;5116007;28;20036;-73
2021/06/08 04:25:07;;;;;;;5.68;5.28;;;;;;;15.62;95.29;96948.84;5115931;28;20050;-73
2021/06/08 04:27:35;;;;;;;3.95;3.75;;;;;;;15.58;95.00;96947.72;5115478;27;20035;-73
2021/06/08 04:30:05;;;;;;;4.05;3.75;;;;;;;15.52;94.76;96946.00;5116081;28;20051;-73
2021/06/08 04:32:33;;;;;;;3.75;3.55;;;;;;;15.49;95.17;96938.53;5116356;28;20376;-73
2021/06/08 04:34:59;;;;;;;4.50;4.20;;;;;;;15.50;95.54;96947.28;5115371;27;20059;-73
2021/06/08 04:37:27;;;;;;;3.90;3.47;;;;;;;15.51;95.89;96940.94;5115393;28;20056;-73
2021/06/08 04:39:53;;;;;;;4.40;4.10;;;;;;;15.52;95.70;96947.84;5114766;28;20480;-73
2021/06/08 04:42:19;;;;;;;3.70;3.40;;;;;;;15.53;95.66;96944.97;5115819;28;20035;-73
2021/06/08 04:44:52;;;;;;;3.90;3.63;;;;;;;15.58;96.22;96947.72;5116330;28;20364;-73
2021/06/08 04:47:20;;;;;;;3.70;3.47;;;;;;;15.64;96.19;96938.00;5115745;28;20039;-74
2021/06/08 04:49:46;;;;;;;4.80;4.50;;;;;;;15.70;96.23;96939.69;5116038;27;20043;-73
2021/06/08 04:52:13;;;;;;;4.85;4.45;;;;;;;15.75;96.12;96941.69;5115590;28;20047;-73
2021/06/08 04:54:41;;;;;;;6.13;5.63;;;;;;;15.76;95.96;96943.28;5114540;27;20035;-74
2021/06/08 04:57:10;;;;;;;5.85;5.35;;;;;;;15.72;95.66;96942.13;5115840;28;20044;-74
2021/06/08 04:59:45;;;;;;;4.88;4.50;;;;;;;15.69;95.94;96950.53;5115202;28;20043;-73
2021/06/08 05:02:17;;;;;;;5.20;4.80;;;;;;;15.67;96.21;96953.41;5115645;27;20043;-73
2021/06/08 05:04:44;;;;;;;4.95;4.55;;;;;;;15.69;96.63;96939.97;5115751;27;20040;-74
2021/06/08 05:07:15;;;;;;;5.20;4.80;;;;;;;15.71;96.60;96938.69;5115572;28;20032;-73
2021/06/08 05:09:45;;;;;;;4.53;4.15;;;;;;;15.76;96.90;96938.78;5115627;28;20040;-74
2021/06/08 05:12:14;;;;;;;5.03;4.72;;;;;;;15.80;96.67;96939.91;5105471;28;20388;-73
2021/06/08 05:14:46;;;;;;;5.47;5.07;;;;;;;15.80;96.53;96936.47;5115042;28;20043;-73
2021/06/08 05:17:16;;;;;;;5.70;5.30;;;;;;;15.82;96.60;96940.47;5115294;28;20031;-73
2021/06/08 05:19:42;;;;;;;5.25;4.85;;;;;;;15.82;96.53;96942.31;5115184;27;20035;-74
2021/06/08 05:22:10;;;;;;;5.60;5.20;;;;;;;15.85;96.55;96946.31;5115084;28;20028;-73
2021/06/08 05:24:37;;;;;;;5.20;4.85;;;;;;;15.83;96.29;96947.38;5115336;28;20055;-74
2021/06/08 05:27:04;;;;;;;5.53;5.13;;;;;;;15.83;96.20;96952.66;5114923;28;20391;-73
2021/06/08 05:29:30;;;;;;;6.40;5.38;;;;;;;15.82;96.47;96958.19;5115303;28;20042;-73
2021/06/08 05:31:58;;;;;;;6.03;5.53;;;;;;;15.77;96.77;96956.25;5114872;28;20067;-73
2021/06/08 05:34:26;;;;;;;6.32;5.75;;;;;;;15.73;97.10;96970.22;5114807;28;20031;-73
2021/06/08 05:36:52;;;;;;;6.20;5.68;;;;;;;15.73;97.56;96964.91;5115256;28;20071;-74
2021/06/08 05:39:18;;;;;;;5.22;4.82;;;;;;;15.73;97.49;96960.44;5114640;28;20044;-73
2021/06/08 05:41:45;;;;;;;5.22;4.82;;;;;;;15.71;97.39;96964.31;5114883;28;20039;-73
2021/06/08 05:44:12;;;;;;;6.20;5.65;;;;;;;15.69;97.47;96964.56;5114867;28;20036;-74
2021/06/08 05:46:38;;;;;;;5.13;4.82;;;;;;;15.68;97.49;96965.56;5114598;28;20035;-74
2021/06/08 05:49:06;;;;;;;4.93;4.63;;;;;;;15.70;97.82;96963.50;5114499;28;20036;-74
2021/06/08 05:51:33;;;;;;;4.97;4.68;;;;;;;15.75;97.98;96962.84;5114331;28;20048;-74
2021/06/08 05:54:01;;;;;;;5.97;5.55;;;;;;;15.83;97.77;96959.78;5114714;28;20051;-74
2021/06/08 05:56:36;;;;;;;6.05;5.65;;;;;;;15.87;97.73;96966.19;5114028;28;20491;-74
2021/06/08 05:59:03;;;;;;;5.90;5.47;;;;;;;15.93;97.76;96967.88;5114818;28;20039;-73
2021/06/08 06:01:30;;;;;;;7.03;6.53;;;;;;;16.00;97.61;96971.19;5114312;28;20031;-74
2021/06/08 06:03:57;;;;;;;7.28;6.78;;;;;;;16.04;97.34;96968.84;5114501;28;20040;-74
2021/06/08 06:06:25;;;;;;;7.20;6.28;;;;;;;16.07;97.12;96967.59;5113358;28;20047;-73
2021/06/08 06:08:51;;;;;;;7.45;6.85;;;;;;;16.08;97.06;96967.34;5112698;28;20042;-74
2021/06/08 06:11:19;;;;;;;7.22;6.55;;;;;;;16.07;97.14;96964.94;5113614;28;20059;-73
2021/06/08 06:13:48;;;;;;;5.93;5.50;;;;;;;16.11;97.33;96968.72;5113834;28;20581;-73
2021/06/08 06:16:19;;;;;;;7.13;6.63;;;;;;;16.14;97.68;96966.38;5113903;28;20054;-74
2021/06/08 06:18:45;;;;;;;12.10;11.02;;;;;;;16.17;97.67;96957.19;5114196;28;20467;-74
2021/06/08 06:21:12;;;;;;;6.22;5.82;;;;;;;16.20;97.47;96954.03;5113744;28;20035;-72
2021/06/08 06:23:39;;;;;;;6.38;5.88;;;;;;;16.32;95.76;96960.06;5113803;28;20047;-72
2021/06/08 06:26:07;;;;;;;7.90;7.30;;;;;;;16.47;95.49;96956.81;5113353;28;20039;-74
2021/06/08 06:28:33;;;;;;;9.52;8.80;;;;;;;16.58;95.41;96961.22;5112597;28;20089;-73
2021/06/08 06:31:00;;;;;;;13.93;12.60;;;;;;;16.69;94.97;96959.50;5113592;28;20039;-75
2021/06/08 06:33:26;;;;;;;16.48;14.88;;;;;;;16.69;94.93;96961.34;5113498;28;20486;-73
2021/06/08 06:35:57;;;;;;;20.77;18.58;;;;;;;16.59;94.61;96956.75;5113394;28;20415;-74
2021/06/08 06:38:25;;;;;;;19.42;17.63;;;;;;;16.52;94.66;96969.34;5113206;28;20069;-73
2021/06/08 06:40:52;;;;;;;19.52;17.70;;;;;;;16.48;95.04;96963.72;5113565;28;20050;-74
2021/06/08 06:43:24;;;;;;;19.85;17.95;;;;;;;16.48;95.47;96962.91;5113483;28;20046;-74
2021/06/08 06:45:53;;;;;;;19.08;17.52;;;;;;;16.46;95.25;96967.66;5114519;28;20035;-74
2021/06/08 06:48:20;;;;;;;17.70;16.25;;;;;;;16.46;95.46;96968.44;5113801;28;20487;-74
2021/06/08 06:50:47;;;;;;;18.23;16.63;;;;;;;16.48;95.62;96969.00;5113497;27;20031;-74
2021/06/08 06:53:17;;;;;;;18.38;16.58;;;;;;;16.45;95.60;96966.84;5113540;28;20032;-73
2021/06/08 06:55:48;;;;;;;17.65;16.17;;;;;;;16.46;95.73;96976.38;5113126;28;20039;-73
2021/06/08 06:58:20;;;;;;;19.30;17.45;;;;;;;16.46;96.08;96970.31;5113575;28;20044;-73
2021/06/08 07:00:46;;;;;;;18.02;16.55;;;;;;;16.46;95.59;96975.59;5113180;28;20043;-73
2021/06/08 07:03:16;;;;;;;16.38;15.05;;;;;;;16.46;95.94;96981.69;5113872;28;20421;-73
2021/06/08 07:05:44;;;;;;;17.15;15.65;;;;;;;16.46;95.90;96976.38;5113195;28;20043;-74
2021/06/08 07:08:12;;;;;;;12.63;11.63;;;;;;;16.55;95.76;96984.75;5113052;28;20035;-74
2021/06/08 07:10:39;;;;;;;14.32;13.15;;;;;;;16.59;95.64;96984.03;5111069;28;20046;-73
2021/06/08 07:13:06;;;;;;;14.38;13.20;;;;;;;16.60;95.49;96982.16;5112880;28;20403;-74
2021/06/08 07:15:34;;;;;;;14.55;13.38;;;;;;;16.60;95.42;96992.75;5103135;28;20039;-74
2021/06/08 07:18:02;;;;;;;15.13;13.93;;;;;;;16.60;95.44;96985.59;5116695;28;20038;-73
2021/06/08 07:20:29;;;;;;;15.40;14.20;;;;;;;16.62;95.33;96985.38;5117601;28;20031;-73
2021/06/08 07:23:00;;;;;;;15.25;14.05;;;;;;;16.65;95.26;96979.56;5117586;28;20027;-74
2021/06/08 07:25:27;;;;;;;15.27;14.05;;;;;;;16.67;95.24;96982.78;5117374;28;20039;-73
2021/06/08 07:27:57;;;;;;;16.20;14.90;;;;;;;16.68;95.10;96976.47;5117399;28;20040;-73
2021/06/08 07:30:24;;;;;;;15.43;14.23;;;;;;;16.72;94.66;96980.22;5117564;28;20035;-74
2021/06/08 07:33:00;;;;;;;14.90;13.70;;;;;;;16.74;94.60;96985.28;5116986;28;20047;-73
2021/06/08 07:35:36;;;;;;;15.50;14.20;;;;;;;16.79;94.34;96982.69;5117176;28;20050;-73
2021/06/08 07:38:08;;;;;;;14.98;13.77;;;;;;;16.85;94.30;96979.09;5116207;28;20051;-73
2021/06/08 07:40:44;;;;;;;14.85;13.70;;;;;;;16.94;93.65;96982.13;5116271;28;20039;-73
2021/06/08 07:43:13;;;;;;;15.77;14.48;;;;;;;17.01;93.65;96978.25;5103800;28;20047;-73
2021/06/08 07:45:44;;;;;;;15.35;14.15;;;;;;;17.19;93.58;96981.66;5116880;27;20035;-73
2021/06/08 07:48:15;;;;;;;15.05;13.85;;;;;;;17.33;93.02;96980.22;5116953;28;20356;-74
2021/06/08 07:50:45;;;;;;;15.98;14.68;;;;;;;17.47;92.03;96979.84;5117672;28;20471;-73
2021/06/08 07:53:13;;;;;;;14.48;13.30;;;;;;;17.53;91.77;96976.19;5116919;28;20383;-73
2021/06/08 07:55:42;;;;;;;13.88;12.88;;;;;;;17.55;91.20;96982.03;5116896;28;20404;-73
2021/06/08 07:58:10;;;;;;;14.75;13.50;;;;;;;17.52;90.87;96983.34;5116583;27;20032;-73
2021/06/08 08:00:37;;;;;;;15.88;14.52;;;;;;;17.46;90.51;96984.34;5116776;28;20043;-73
2021/06/08 08:05:49;;;;;;;15.60;14.40;;;;;;;17.35;90.39;96983.44;5117035;27;20039;-73
2021/06/08 08:08:20;;;;;;;15.75;14.52;;;;;;;17.34;90.34;96992.41;5116548;28;20047;-73
2021/06/08 08:10:49;;;;;;;15.10;13.90;;;;;;;17.36;90.51;96992.19;5116338;28;20043;-74
2021/06/08 08:13:18;;;;;;;15.70;14.40;;;;;;;17.38;90.30;96995.38;5115950;28;20397;-73
2021/06/08 08:15:45;;;;;;;16.08;14.77;;;;;;;17.36;90.35;97000.94;5116539;27;20391;-72
2021/06/08 08:18:12;;;;;;;15.43;14.20;;;;;;;17.33;90.12;96992.69;5116522;28;20038;-72
2021/06/08 08:20:45;;;;;;;14.15;13.05;;;;;;;17.33;89.28;96996.13;5116298;28;20414;-73
2021/06/08 08:23:13;;;;;;;14.85;13.73;;;;;;;17.37;90.09;97001.75;5116544;28;20035;-73
2021/06/08 08:25:40;;;;;;;14.93;13.73;;;;;;;17.37;89.92;97002.53;5116101;28;20044;-73
2021/06/08 08:28:08;;;;;;;16.13;14.73;;;;;;;17.34;89.91;97003.03;5115195;27;20044;-73
2021/06/08 08:30:35;;;;;;;16.10;14.80;;;;;;;17.32;89.96;97002.47;5116080;28;20040;-73
2021/06/08 08:33:03;;;;;;;16.40;15.10;;;;;;;17.32;89.71;97004.31;5116264;28;20036;-73
2021/06/08 08:35:35;;;;;;;8.95;8.30;;;;;;;17.36;88.69;97010.75;5116207;28;20047;-73
2021/06/08 08:38:02;;;;;;;13.48;12.38;;;;;;;17.48;89.39;97008.75;5115848;28;20395;-73
2021/06/08 08:40:29;;;;;;;16.67;15.40;;;;;;;17.54;89.34;97013.06;5116424;28;20055;-73
2021/06/08 08:42:59;;;;;;;16.15;14.75;;;;;;;17.55;88.73;97000.59;5115580;28;20058;-73
2021/06/08 08:45:26;;;;;;;15.43;14.23;;;;;;;17.53;88.58;97008.81;5115839;28;20048;-73
2021/06/08 08:47:53;;;;;;;16.00;14.80;;;;;;;17.50;88.36;97019.13;5115875;28;20047;-73
2021/06/08 08:50:20;;;;;;;16.83;15.52;;;;;;;17.43;88.21;97016.66;5115785;28;20034;-73
2021/06/08 08:52:56;;;;;;;17.33;15.93;;;;;;;17.37;88.40;97015.00;5115733;28;20031;-73
2021/06/08 08:55:29;;;;;;;17.27;15.88;;;;;;;17.32;88.65;97009.63;5115804;28;20034;-73
2021/06/08 08:57:57;;;;;;;17.90;16.38;;;;;;;17.32;88.73;97014.94;5116018;27;20034;-73
2021/06/08 09:00:28;;;;;;;16.00;14.80;;;;;;;17.35;88.95;97017.09;5114998;28;20055;-73
2021/06/08 09:02:56;;;;;;;17.45;16.05;;;;;;;17.40;88.62;97017.94;5115685;28;20043;-74
2021/06/08 09:05:24;;;;;;;17.60;16.30;;;;;;;17.48;88.82;97013.28;5115603;28;20039;-74
2021/06/08 09:07:51;;;;;;;17.52;16.08;;;;;;;17.60;88.85;97008.63;5115427;28;20031;-73
2021/06/08 09:10:18;;;;;;;16.83;15.52;;;;;;;17.76;88.71;97006.94;5115468;27;20032;-73
2021/06/08 09:12:48;;;;;;;17.23;15.82;;;;;;;17.88;88.33;97006.81;5115291;28;20050;-73
2021/06/08 09:15:15;;;;;;;17.42;16.05;;;;;;;17.92;88.10;97014.03;5115102;28;20035;-74
2021/06/08 09:17:42;;;;;;;15.30;14.10;;;;;;;17.93;87.55;97010.34;5115849;28;20043;-72
2021/06/08 09:20:10;;;;;;;10.65;9.85;;;;;;;18.00;86.77;97012.78;5115517;28;20411;-72
2021/06/08 09:22:47;;;;;;;16.25;15.00;;;;;;;18.08;86.21;97008.84;5114721;28;20035;-72
2021/06/08 09:25:34;;;;;;;16.98;15.60;;;;;;;18.08;86.50;97012.34;5114421;28;20396;-73
2021/06/08 09:28:15;;;;;;;16.33;15.02;;;;;;;18.10;85.35;97012.88;5114320;28;20054;-73
2021/06/08 09:30:42;;;;;;;16.45;15.15;;;;;;;18.20;86.23;97012.16;5114954;28;20027;-73
2021/06/08 09:33:28;;;;;;;15.63;14.40;;;;;;;18.32;84.69;97007.47;5114814;28;20036;-73
2021/06/08 09:36:01;;;;;;;14.55;13.45;;;;;;;18.41;85.45;97005.94;5114744;28;20050;-74
2021/06/08 09:38:44;;;;;;;14.23;13.15;;;;;;;18.54;84.33;97007.38;5115289;28;20039;-74
2021/06/08 09:41:27;;;;;;;14.90;13.80;;;;;;;18.73;84.10;96997.16;5100917;28;20040;-73
2021/06/08 09:43:59;;;;;;;14.48;13.38;;;;;;;18.93;83.79;97003.66;5114850;28;20046;-73
2021/06/08 09:46:44;;;;;;;15.05;13.93;;;;;;;19.16;82.55;97000.59;5114974;28;20032;-74
2021/06/08 09:49:13;;;;;;;13.68;12.70;;;;;;;19.33;82.84;97002.25;5114530;28;20044;-74
2021/06/08 09:52:00;;;;;;;14.75;13.60;;;;;;;19.40;80.46;97003.63;5115274;28;20055;-73
2021/06/08 09:54:33;;;;;;;14.80;13.70;;;;;;;19.40;79.87;97002.81;5114456;28;20028;-73
2021/06/08 09:57:22;;;;;;;14.47;13.47;;;;;;;19.44;80.42;96998.56;5114351;28;20035;-74
2021/06/08 09:59:58;;;;;;;14.02;12.93;;;;;;;19.77;80.05;96999.22;5114957;28;20039;-73
2021/06/08 10:02:50;;;;;;;13.73;12.73;;;;;;;20.17;79.76;96993.16;5114364;28;20036;-73
2021/06/08 10:05:27;;;;;;;14.20;13.15;;;;;;;20.47;77.17;96989.69;5102190;28;20023;-73
2021/06/08 10:07:59;;;;;;;13.23;12.25;;;;;;;20.53;74.99;96987.81;5114412;28;20035;-72
2021/06/08 10:10:39;;;;;;;9.38;8.20;;;;;;;20.50;72.32;96999.00;5114099;28;20024;-73
2021/06/08 10:13:09;;;;;;;11.45;10.65;;;;;;;20.44;75.82;97000.88;5114198;28;20051;-73
2021/06/08 10:15:59;;;;;;;12.57;11.68;;;;;;;20.41;75.01;96997.94;5113280;28;20040;-73
2021/06/08 10:18:48;;;;;;;11.30;10.50;;;;;;;20.43;72.93;97006.44;5113886;28;20027;-73
2021/06/08 10:21:15;;;;;;;11.63;10.73;;;;;;;20.47;74.62;97002.19;5114050;28;20039;-73
2021/06/08 10:23:42;;;;;;;10.45;9.75;;;;;;;20.38;73.88;97004.59;5114047;28;20034;-73
2021/06/08 10:26:11;;;;;;;10.55;9.85;;;;;;;20.32;73.54;96999.53;5112621;28;20034;-73
2021/06/08 10:28:38;;;;;;;9.50;8.80;;;;;;;20.23;73.32;96997.41;5113780;28;20027;-73
2021/06/08 10:31:05;;;;;;;11.95;11.05;;;;;;;20.20;73.19;96995.28;5100660;28;20023;-73
2021/06/08 10:33:33;;;;;;;10.43;9.82;;;;;;;20.19;73.10;97000.88;5113957;28;20038;-73
2021/06/08 10:36:00;;;;;;;11.80;11.00;;;;;;;20.18;73.05;97001.94;5113419;28;20498;-73
2021/06/08 10:38:26;;;;;;;11.85;11.05;;;;;;;20.20;72.96;96995.28;5113963;28;20070;-73
2021/06/08 10:40:56;;;;;;;11.82;11.07;;;;;;;20.28;72.83;96999.28;5113744;28;20043;-73
2021/06/08 10:43:26;;;;;;;12.00;11.20;;;;;;;20.36;72.27;96998.75;5114318;28;20038;-73
2021/06/08 10:45:55;;;;;;;10.88;10.05;;;;;;;20.40;72.01;96997.13;5113644;28;20608;-73
2021/06/08 10:48:41;;;;;;;11.13;10.35;;;;;;;20.44;71.83;96994.75;5113466;28;20048;-73
2021/06/08 10:51:22;;;;;;;12.95;11.63;;;;;;;20.38;71.24;96991.28;5113202;28;20034;-73
2021/06/08 10:53:57;;;;;;;12.10;11.23;;;;;;;20.36;71.66;97001.41;5113777;28;20400;-73
2021/06/08 10:56:30;;;;;;;11.85;10.85;;;;;;;20.43;71.68;96993.97;5114075;28;20031;-73
2021/06/08 10:59:05;;;;;;;11.67;10.87;;;;;;;20.52;70.99;96993.41;5113152;28;20044;-73
2021/06/08 11:01:31;;;;;;;10.63;9.80;;;;;;;20.56;71.25;96992.59;5102492;28;20031;-74
2021/06/08 11:03:59;;;;;;;10.68;10.02;;;;;;;20.53;71.00;96995.00;5113531;28;20452;-73
2021/06/08 11:06:38;;;;;;;10.85;10.05;;;;;;;20.52;70.59;96990.75;5113221;28;20476;-73
2021/06/08 11:09:12;;;;;;;11.88;10.98;;;;;;;20.50;70.81;96998.22;5113358;28;20046;-73
2021/06/08 11:11:56;;;;;;;11.32;10.63;;;;;;;20.49;70.93;96994.72;5113275;28;20040;-74
2021/06/08 11:14:32;;;;;;;11.23;10.53;;;;;;;20.50;70.28;96985.69;5113576;28;20486;-73
2021/06/08 11:17:10;;;;;;;10.65;9.90;;;;;;;20.62;71.13;96990.75;5112603;28;20044;-73
2021/06/08 11:19:53;;;;;;;11.10;10.30;;;;;;;20.76;70.99;96996.34;5113571;28;20036;-73
2021/06/08 11:22:33;;;;;;;10.65;9.95;;;;;;;20.86;68.99;96978.44;5113395;28;20038;-73
2021/06/08 11:25:04;;;;;;;10.77;9.98;;;;;;;20.93;69.86;96986.16;5113143;28;20032;-74
2021/06/08 11:27:58;;;;;;;10.77;10.07;;;;;;;20.99;68.86;96982.41;5113237;28;20046;-73
2021/06/08 11:30:32;;;;;;;9.73;9.13;;;;;;;21.05;69.54;96983.19;5110096;28;20032;-73
2021/06/08 11:33:01;;;;;;;10.33;9.60;;;;;;;21.09;69.62;96984.25;5112846;28;20035;-74
2021/06/08 11:35:39;;;;;;;10.75;9.93;;;;;;;21.15;68.61;96975.16;5113408;28;20476;-73
2021/06/08 11:38:25;;;;;;;10.02;9.32;;;;;;;21.20;68.17;96971.66;5113459;28;20065;-74
2021/06/08 11:41:06;;;;;;;10.38;9.68;;;;;;;21.17;68.93;96983.69;5113317;28;20046;-73
2021/06/08 11:43:32;;;;;;;9.77;9.07;;;;;;;21.08;68.81;96978.13;5097692;28;20458;-73